Time;durP1;ratioP1;P1;durP2;ratioP2;P2;SDS_P1;SDS_P2;PMS_P1;PMS_P2;Temp;Humidity;BMP_temperature;BMP_pressure;BME280_temperature;BME280_humidity;BME280_pressure;Samples;Min_cycle;Max_cycle;Signal;HPM_P1;HPM_P2
2023/02/16 00:00:36;;;;;;;63.60;32.65;;;8.40;99.90;;;;;;5054227;28;20163;-77
2023/02/16 00:03:01;;;;;;;61.22;32.05;;;8.30;99.90;;;;;;5054412;28;20549;-77
2023/02/16 00:05:33;;;;;;;64.10;29.80;;;8.40;99.90;;;;;;5053525;28;20566;-77
2023/02/16 00:08:00;;;;;;;64.03;30.38;;;8.40;99.90;;;;;;5053974;28;20202;-77
2023/02/16 00:10:35;;;;;;;58.63;30.48;;;8.30;99.90;;;;;;5054282;28;20620;-78
2023/02/16 00:15:46;;;;;;;56.08;30.40;;;8.30;99.90;;;;;;5054636;28;20189;-78
2023/02/16 00:18:19;;;;;;;62.38;32.70;;;8.20;99.90;;;;;;5053361;28;20600;-77
2023/02/16 00:20:47;;;;;;;60.00;32.03;;;8.10;99.90;;;;;;5053961;28;20627;-78
2023/02/16 00:23:12;;;;;;;67.65;33.15;;;8.10;99.90;;;;;;5053793;28;20191;-78
2023/02/16 00:25:38;;;;;;;64.80;31.02;;;8.10;99.90;;;;;;5053977;28;20167;-77
2023/02/16 00:28:11;;;;;;;58.63;32.35;;;8.10;99.90;;;;;;5053730;28;20179;-77
2023/02/16 00:30:38;;;;;;;60.83;33.47;;;8.10;99.90;;;;;;5053731;28;20167;-77
2023/02/16 00:33:15;;;;;;;69.20;32.38;;;8.00;99.90;;;;;;5053486;28;20198;-77
2023/02/16 00:35:42;;;;;;;62.58;30.15;;;8.10;99.90;;;;;;5053808;28;20622;-77
2023/02/16 00:38:07;;;;;;;59.00;31.98;;;8.30;99.90;;;;;;5054508;28;20205;-78
2023/02/16 00:40:33;;;;;;;63.03;32.10;;;8.20;99.90;;;;;;5053722;28;20195;-77
2023/02/16 00:42:59;;;;;;;59.05;30.50;;;8.10;99.90;;;;;;5053590;28;20731;-77
2023/02/16 00:45:25;;;;;;;54.83;29.35;;;8.10;99.90;;;;;;5053538;28;20262;-78
2023/02/16 00:47:52;;;;;;;58.22;31.50;;;8.10;99.90;;;;;;5053445;28;20609;-78
2023/02/16 00:50:32;;;;;;;54.55;31.05;;;8.10;99.90;;;;;;5053398;28;20723;-77
2023/02/16 00:52:59;;;;;;;62.15;32.72;;;7.90;99.90;;;;;;5052877;28;20183;-77
2023/02/16 00:55:32;;;;;;;60.60;31.17;;;8.00;99.90;;;;;;5052947;28;20237;-78
2023/02/16 00:58:18;;;;;;;60.83;32.60;;;7.90;99.90;;;;;;5053734;28;20558;-77
2023/02/16 01:00:51;;;;;;;58.47;31.23;;;7.90;99.90;;;;;;5053200;28;20186;-77
2023/02/16 01:03:19;;;;;;;57.72;31.02;;;8.00;99.90;;;;;;5052702;28;20187;-77
2023/02/16 01:05:45;;;;;;;66.13;33.65;;;8.00;99.90;;;;;;5052837;28;20172;-80
2023/02/16 01:13:29;;;;;;;64.43;31.70;;;7.80;99.90;;;;;;5052452;28;20184;-77
2023/02/16 01:15:56;;;;;;;68.75;33.00;;;7.70;99.90;;;;;;5035087;28;20202;-77
2023/02/16 01:18:22;;;;;;;70.80;34.22;;;7.60;99.90;;;;;;5051980;28;20206;-77
2023/02/16 01:20:48;;;;;;;69.20;34.10;;;7.60;99.90;;;;;;5052854;28;20162;-77
2023/02/16 01:23:14;;;;;;;61.65;35.15;;;7.60;99.90;;;;;;5052484;28;20596;-78
2023/02/16 01:25:40;;;;;;;61.00;32.65;;;7.80;99.90;;;;;;5052662;28;20176;-78
2023/02/16 01:28:20;;;;;;;65.35;33.90;;;7.80;99.90;;;;;;5035020;28;20215;-79
2023/02/16 01:30:46;;;;;;;65.50;33.08;;;7.90;99.90;;;;;;5052751;28;20177;-78
2023/02/16 01:33:12;;;;;;;70.70;35.50;;;7.90;99.90;;;;;;5052805;28;20183;-79
2023/02/16 01:35:38;;;;;;;84.38;34.13;;;7.80;99.90;;;;;;5052856;28;20498;-78
2023/02/16 01:38:04;;;;;;;68.13;33.05;;;7.70;99.90;;;;;;5052539;28;20695;-80
2023/02/16 01:40:32;;;;;;;62.00;32.78;;;7.70;99.90;;;;;;5052712;28;20241;-78
2023/02/16 01:43:21;;;;;;;66.82;34.05;;;7.80;99.90;;;;;;5052391;28;20205;-78
2023/02/16 01:46:06;;;;;;;71.95;34.50;;;7.90;99.90;;;;;;5034539;28;20198;-78
2023/02/16 01:48:32;;;;;;;69.57;32.58;;;7.90;99.90;;;;;;5052399;28;20175;-79
2023/02/16 01:51:16;;;;;;;69.07;33.42;;;8.10;99.90;;;;;;5052512;28;20169;-80
2023/02/16 01:54:29;;;;;;;72.43;33.05;;;8.10;99.90;;;;;;5052624;28;20202;-79
2023/02/16 01:57:05;;;;;;;63.30;31.55;;;8.10;99.90;;;;;;5052088;28;20548;-78
2023/02/16 01:59:40;;;;;;;60.20;31.33;;;8.30;99.90;;;;;;5052015;28;20175;-78
2023/02/16 02:02:25;;;;;;;67.50;32.45;;;8.10;99.90;;;;;;5051922;28;20206;-78
2023/02/16 02:08:02;;;;;;;56.75;31.13;;;8.10;99.90;;;;;;5052305;28;20334;-78
2023/02/16 02:10:38;;;;;;;62.95;31.38;;;8.10;99.90;;;;;;5052317;28;20159;-78
2023/02/16 02:13:09;;;;;;;53.90;29.58;;;8.00;99.90;;;;;;5033544;28;20199;-78
2023/02/16 02:15:35;;;;;;;59.35;30.42;;;8.10;99.90;;;;;;5051739;28;20174;-78
2023/02/16 02:18:01;;;;;;;57.78;29.90;;;8.10;99.90;;;;;;5051983;28;20265;-77
2023/02/16 02:24:10;;;;;;;54.90;28.90;;;8.00;99.90;;;;;;4951975;28;20201;-78
2023/02/16 02:26:42;;;;;;;67.68;32.10;;;8.20;99.90;;;;;;4952488;29;20281;-78
2023/02/16 02:29:32;;;;;;;56.63;30.30;;;8.20;99.90;;;;;;5029777;28;20202;-78
2023/02/16 02:32:30;;;;;;;52.22;28.83;;;8.20;99.90;;;;;;5055876;28;20179;-79
2023/02/16 02:34:59;;;;;;;53.38;29.38;;;8.20;99.90;;;;;;5038221;28;20546;-78
2023/02/16 02:37:28;;;;;;;54.95;30.10;;;8.20;99.90;;;;;;5055936;28;20254;-78
2023/02/16 02:40:34;;;;;;;57.78;29.25;;;8.20;99.90;;;;;;5056000;28;20167;-78
2023/02/16 02:43:09;;;;;;;52.03;27.80;;;8.40;99.90;;;;;;5055562;28;20218;-78
2023/02/16 02:46:02;;;;;;;52.53;29.38;;;8.40;99.90;;;;;;5055853;28;20170;-78
2023/02/16 02:48:32;;;;;;;49.80;28.17;;;8.60;99.90;;;;;;5060787;28;20217;-78
2023/02/16 02:51:32;;;;;;;49.40;29.60;;;8.50;99.90;;;;;;5056467;28;20175;-78
2023/02/16 03:02:37;;;;;;;56.58;29.92;;;8.10;99.90;;;;;;5055404;28;20218;-79
2023/02/16 03:05:06;;;;;;;57.28;28.75;;;8.20;99.90;;;;;;5055365;28;20198;-79
2023/02/16 03:07:45;;;;;;;57.95;29.75;;;8.20;99.90;;;;;;5037204;28;20199;-80
2023/02/16 03:13:03;;;;;;;59.63;29.73;;;7.90;99.90;;;;;;5055254;28;20621;-78
2023/02/16 03:15:30;;;;;;;60.13;29.83;;;8.10;99.90;;;;;;5055158;28;20170;-79
2023/02/16 03:31:45;;;;;;;59.13;29.20;;;8.30;99.90;;;;;;5055182;28;20709;-78
2023/02/16 03:34:12;;;;;;;52.05;29.40;;;8.30;99.90;;;;;;5055050;28;20200;-78
2023/02/16 03:36:42;;;;;;;51.78;28.85;;;8.30;99.90;;;;;;5054683;28;20163;-79
2023/02/16 03:39:09;;;;;;;44.65;25.73;;;8.20;99.90;;;;;;5054756;28;20270;-79
2023/02/16 03:41:40;;;;;;;53.00;28.95;;;8.10;99.90;;;;;;5053705;28;20202;-79
2023/02/16 03:44:06;;;;;;;54.05;27.90;;;8.10;99.90;;;;;;5054929;28;20673;-79
2023/02/16 03:46:32;;;;;;;55.10;29.63;;;8.10;99.90;;;;;;5054680;28;20175;-78
2023/02/16 03:48:58;;;;;;;56.90;29.13;;;8.10;99.90;;;;;;5054806;28;20187;-80
2023/02/16 03:51:24;;;;;;;52.22;28.80;;;8.10;99.90;;;;;;5054398;28;20264;-76
2023/02/16 03:53:50;;;;;;;55.53;30.48;;;8.00;99.90;;;;;;5055133;28;20258;-79
2023/02/16 03:56:17;;;;;;;55.53;29.88;;;8.10;99.90;;;;;;5054662;28;20174;-79
2023/02/16 03:58:42;;;;;;;59.15;29.88;;;8.00;99.90;;;;;;5054398;28;20194;-82
2023/02/16 04:01:08;;;;;;;55.05;28.08;;;8.00;99.90;;;;;;5054387;28;20211;-78
2023/02/16 04:03:33;;;;;;;63.10;30.13;;;8.20;99.90;;;;;;5054200;28;20213;-78
2023/02/16 04:05:59;;;;;;;55.33;30.20;;;8.30;99.90;;;;;;5054545;28;20171;-78
2023/02/16 04:08:25;;;;;;;53.05;28.17;;;8.20;99.90;;;;;;5054330;28;20522;-79
2023/02/16 04:10:51;;;;;;;54.28;27.50;;;8.30;99.90;;;;;;5036393;28;20265;-79
2023/02/16 04:13:16;;;;;;;52.90;28.77;;;8.20;99.90;;;;;;5054190;28;20218;-79
2023/02/16 04:15:42;;;;;;;53.53;28.35;;;8.20;99.90;;;;;;5036536;28;20594;-78
2023/02/16 04:18:08;;;;;;;52.78;28.48;;;8.30;99.90;;;;;;5054120;28;20183;-78
2023/02/16 04:20:35;;;;;;;51.92;26.73;;;8.30;99.90;;;;;;5054292;28;20167;-79
2023/02/16 04:23:01;;;;;;;51.00;28.40;;;8.40;99.90;;;;;;5053898;28;20572;-78
2023/02/16 04:25:27;;;;;;;50.08;29.83;;;8.40;99.90;;;;;;5053995;28;20620;-79
2023/02/16 04:27:53;;;;;;;59.58;28.88;;;8.40;99.90;;;;;;5053827;28;20659;-78
2023/02/16 04:30:22;;;;;;;61.60;29.85;;;8.40;99.90;;;;;;5053535;28;20163;-78
2023/02/16 04:32:48;;;;;;;56.03;29.20;;;8.40;99.90;;;;;;5053780;28;20191;-78
2023/02/16 04:35:14;;;;;;;55.13;28.10;;;8.50;99.90;;;;;;5053673;28;20339;-78
2023/02/16 04:37:40;;;;;;;56.03;28.80;;;8.60;99.90;;;;;;5053318;28;20167;-79
2023/02/16 04:40:07;;;;;;;61.78;29.13;;;8.60;99.90;;;;;;5053606;28;20174;-78
2023/02/16 04:42:33;;;;;;;51.63;28.10;;;8.60;99.90;;;;;;5053527;28;20576;-79
2023/02/16 04:44:59;;;;;;;51.67;28.08;;;8.60;99.90;;;;;;5053695;28;20189;-78
2023/02/16 04:47:25;;;;;;;55.78;30.15;;;8.50;99.90;;;;;;5053267;28;20254;-79
2023/02/16 04:49:52;;;;;;;58.95;29.38;;;8.50;99.90;;;;;;5053383;28;20159;-79
2023/02/16 04:52:18;;;;;;;55.03;28.80;;;8.50;99.90;;;;;;5053096;28;20528;-80
2023/02/16 04:54:43;;;;;;;49.42;28.05;;;8.60;99.90;;;;;;5053383;28;20217;-80
2023/02/16 04:57:10;;;;;;;57.42;27.58;;;8.60;99.90;;;;;;5053433;28;20579;-79
2023/02/16 04:59:36;;;;;;;46.42;27.50;;;8.60;99.90;;;;;;5053477;28;20198;-79
2023/02/16 05:02:01;;;;;;;48.60;26.38;;;8.60;99.90;;;;;;5053001;28;20219;-79
2023/02/16 05:04:27;;;;;;;48.38;27.38;;;8.60;99.90;;;;;;5053379;28;20159;-78
2023/02/16 05:06:53;;;;;;;56.40;30.45;;;8.50;99.90;;;;;;5053179;28;20183;-79
2023/02/16 05:09:19;;;;;;;41.17;26.33;;;8.40;99.90;;;;;;5053306;28;20171;-79
2023/02/16 05:14:46;;;;;;;47.40;26.77;;;8.60;99.90;;;;;;5052834;28;20270;-81
2023/02/16 05:17:19;;;;;;;43.95;25.38;;;9.00;99.90;;;;;;5052862;28;20183;-79
2023/02/16 05:19:58;;;;;;;44.53;23.92;;;8.90;99.90;;;;;;5052779;28;20171;-78
2023/02/16 05:22:24;;;;;;;44.83;24.98;;;8.90;99.90;;;;;;5052742;28;20793;-78
2023/02/16 05:24:50;;;;;;;52.72;26.73;;;9.00;99.90;;;;;;5056097;28;20174;-78
2023/02/16 05:27:22;;;;;;;40.30;24.85;;;8.80;99.90;;;;;;5056784;28;20189;-78
2023/02/16 05:29:48;;;;;;;44.65;25.30;;;8.60;99.90;;;;;;5056428;28;20523;-79
2023/02/16 05:32:14;;;;;;;44.60;25.25;;;8.60;99.90;;;;;;5055221;28;20284;-81
2023/02/16 05:34:43;;;;;;;47.83;24.92;;;8.60;99.90;;;;;;5054164;28;20565;-78
2023/02/16 05:37:08;;;;;;;50.70;24.98;;;8.50;99.90;;;;;;5035901;28;20660;-82
2023/02/16 05:39:34;;;;;;;37.75;24.35;;;8.70;99.90;;;;;;5054318;28;20199;-79
2023/02/16 05:42:00;;;;;;;44.22;24.70;;;8.70;99.90;;;;;;5038834;28;20264;-78
2023/02/16 05:44:26;;;;;;;48.13;25.70;;;8.70;99.90;;;;;;5059376;28;20173;-79
2023/02/16 05:46:51;;;;;;;41.38;25.52;;;8.90;99.90;;;;;;5038445;28;20183;-78
2023/02/16 05:49:17;;;;;;;41.10;25.58;;;8.90;99.90;;;;;;5055253;28;20194;-78
2023/02/16 05:51:43;;;;;;;47.60;26.88;;;8.80;99.90;;;;;;5055926;28;20202;-77
2023/02/16 05:54:16;;;;;;;43.47;25.05;;;8.80;99.90;;;;;;5055090;28;20163;-79
2023/02/16 05:56:46;;;;;;;49.28;25.85;;;8.90;99.90;;;;;;5038036;28;20671;-79
2023/02/16 05:59:13;;;;;;;47.03;26.88;;;8.90;99.90;;;;;;5038434;28;20202;-78
2023/02/16 06:01:39;;;;;;;46.80;25.20;;;8.80;99.90;;;;;;5054474;28;20662;-79
2023/02/16 06:04:08;;;;;;;49.95;26.27;;;8.90;99.90;;;;;;5053475;28;20159;-78
2023/02/16 06:06:34;;;;;;;53.20;25.27;;;9.00;99.90;;;;;;5054445;28;20642;-78
2023/02/16 06:09:00;;;;;;;41.40;25.50;;;8.90;99.90;;;;;;5054691;28;20689;-79
2023/02/16 06:11:34;;;;;;;42.00;24.45;;;8.90;99.90;;;;;;5053774;28;20250;-78
2023/02/16 06:14:06;;;;;;;44.70;23.83;;;9.10;99.90;;;;;;5053770;28;20170;-78
2023/02/16 06:16:36;;;;;;;47.00;25.48;;;9.00;99.90;;;;;;5053771;28;20202;-78
2023/02/16 06:19:03;;;;;;;50.63;23.38;;;9.00;99.90;;;;;;5054365;28;20183;-79
2023/02/16 06:21:29;;;;;;;42.38;23.48;;;9.00;99.90;;;;;;5054069;28;20540;-78
2023/02/16 06:23:55;;;;;;;46.08;24.13;;;9.00;99.90;;;;;;5035733;28;20175;-78
2023/02/16 06:26:21;;;;;;;46.20;23.92;;;9.00;99.90;;;;;;5052528;28;20190;-77
2023/02/16 06:28:47;;;;;;;40.05;23.98;;;9.00;99.90;;;;;;5053753;28;20246;-78
2023/02/16 06:31:13;;;;;;;41.47;23.67;;;8.90;99.90;;;;;;5054567;28;20171;-79
2023/02/16 06:33:38;;;;;;;40.33;23.38;;;9.10;99.90;;;;;;5035566;28;20656;-78
2023/02/16 06:36:05;;;;;;;43.65;23.00;;;9.10;99.90;;;;;;5055324;28;20266;-79
2023/02/16 06:38:30;;;;;;;40.03;22.65;;;9.30;99.90;;;;;;5057252;28;20246;-79
2023/02/16 06:40:56;;;;;;;37.33;21.60;;;9.30;99.90;;;;;;5055922;28;20159;-78
2023/02/16 06:43:21;;;;;;;37.78;22.98;;;9.20;99.90;;;;;;5055963;28;20197;-79
2023/02/16 06:45:49;;;;;;;40.42;25.35;;;9.10;99.90;;;;;;5057478;28;20282;-78
2023/02/16 06:48:14;;;;;;;39.25;23.45;;;9.00;99.90;;;;;;5055105;28;20194;-79
2023/02/16 06:50:40;;;;;;;43.05;24.20;;;9.00;99.90;;;;;;5056126;28;20168;-78
2023/02/16 06:53:07;;;;;;;43.58;22.83;;;9.20;99.90;;;;;;5055125;28;20193;-79
2023/02/16 06:55:35;;;;;;;37.15;23.08;;;8.90;99.90;;;;;;5059262;28;20167;-78
2023/02/16 06:58:04;;;;;;;38.97;23.98;;;8.80;99.90;;;;;;5041412;28;20164;-79
2023/02/16 07:00:31;;;;;;;43.33;23.15;;;9.00;99.90;;;;;;5058779;28;20195;-80
2023/02/16 07:02:57;;;;;;;38.38;23.02;;;9.00;99.90;;;;;;5040455;28;20222;-79
2023/02/16 07:05:22;;;;;;;39.45;22.02;;;9.00;99.90;;;;;;5058507;28;20179;-79
2023/02/16 07:07:49;;;;;;;34.97;22.73;;;9.00;99.90;;;;;;5058981;28;20209;-79
2023/02/16 07:10:18;;;;;;;42.50;23.33;;;9.00;99.90;;;;;;5064324;28;20647;-82
2023/02/16 07:12:45;;;;;;;41.17;23.70;;;9.20;99.90;;;;;;5063360;28;20588;-79
2023/02/16 07:15:11;;;;;;;38.63;24.73;;;9.20;99.90;;;;;;5062748;28;20251;-78
2023/02/16 07:17:37;;;;;;;43.22;25.48;;;9.30;99.90;;;;;;5026790;28;20218;-79
2023/02/16 07:20:04;;;;;;;51.30;25.15;;;9.20;99.90;;;;;;5048216;28;20176;-84
2023/02/16 07:22:30;;;;;;;41.17;23.48;;;9.20;99.90;;;;;;5035374;28;20690;-81
2023/02/16 07:24:56;;;;;;;41.25;24.23;;;9.20;99.90;;;;;;5035886;28;20168;-79
2023/02/16 07:27:23;;;;;;;43.03;24.33;;;9.20;99.90;;;;;;5034767;28;20253;-79
2023/02/16 07:29:49;;;;;;;42.38;23.77;;;9.20;99.90;;;;;;5037580;28;20171;-79
2023/02/16 07:32:15;;;;;;;42.80;24.90;;;9.20;99.90;;;;;;5045217;28;20530;-80
2023/02/16 07:34:40;;;;;;;46.65;25.55;;;9.20;99.90;;;;;;5061150;28;20168;-78
2023/02/16 07:37:06;;;;;;;52.65;26.40;;;9.30;99.90;;;;;;5054562;28;20698;-78
2023/02/16 07:39:32;;;;;;;48.63;24.48;;;9.20;99.90;;;;;;5056540;28;20627;-77
2023/02/16 07:41:58;;;;;;;44.85;25.10;;;9.30;99.90;;;;;;5038177;28;20226;-78
2023/02/16 07:44:24;;;;;;;41.65;25.08;;;9.30;99.90;;;;;;5057023;28;20221;-78
2023/02/16 07:46:50;;;;;;;55.55;25.13;;;9.20;99.90;;;;;;5039909;28;20594;-78
2023/02/16 07:49:15;;;;;;;42.00;24.52;;;9.30;99.90;;;;;;5036888;28;20194;-78
2023/02/16 07:51:41;;;;;;;44.20;24.50;;;9.30;99.90;;;;;;5057353;28;20615;-78
2023/02/16 07:54:06;;;;;;;44.75;25.02;;;9.50;99.90;;;;;;5055215;28;20250;-78
2023/02/16 07:56:33;;;;;;;45.03;25.20;;;9.50;99.90;;;;;;5054333;28;20630;-78
2023/02/16 07:59:01;;;;;;;42.72;25.40;;;9.40;99.90;;;;;;5054587;28;20171;-78
2023/02/16 08:01:27;;;;;;;41.70;24.65;;;9.20;99.90;;;;;;5058157;28;20551;-77
2023/02/16 08:03:52;;;;;;;45.92;23.75;;;9.20;99.90;;;;;;5061849;28;20257;-79
2023/02/16 08:06:19;;;;;;;43.00;22.88;;;9.20;99.90;;;;;;5054109;28;20170;-77
2023/02/16 08:08:45;;;;;;;43.25;25.23;;;9.20;99.90;;;;;;5045394;28;20209;-82
2023/02/16 08:11:16;;;;;;;42.90;23.98;;;9.30;99.90;;;;;;5051241;28;20183;-78
2023/02/16 08:13:42;;;;;;;46.65;24.70;;;9.20;99.90;;;;;;5031650;28;20190;-86
2023/02/16 08:16:13;;;;;;;47.25;23.73;;;9.20;99.90;;;;;;5040251;28;20230;-79
2023/02/16 08:18:42;;;;;;;43.35;23.85;;;9.50;99.90;;;;;;5033421;28;20180;-78
2023/02/16 08:21:15;;;;;;;40.63;23.10;;;9.60;99.90;;;;;;5033228;28;20195;-78
2023/02/16 08:24:04;;;;;;;49.25;25.17;;;9.60;99.90;;;;;;5040214;28;20190;-85
2023/02/16 08:26:36;;;;;;;45.05;23.58;;;9.70;99.90;;;;;;5073278;28;20174;-85
2023/02/16 08:29:03;;;;;;;36.53;23.33;;;9.80;99.90;;;;;;5073637;28;20228;-81
2023/02/16 08:31:30;;;;;;;38.40;23.42;;;9.80;99.90;;;;;;5073059;28;20155;-82
2023/02/16 08:33:58;;;;;;;34.80;22.65;;;9.60;99.90;;;;;;5067885;28;20174;-80
2023/02/16 08:36:25;;;;;;;40.90;22.17;;;9.60;99.90;;;;;;5073261;28;20634;-80
2023/02/16 08:38:52;;;;;;;43.60;23.42;;;9.50;99.90;;;;;;5072912;28;20397;-80
2023/02/16 08:41:21;;;;;;;46.67;23.92;;;9.50;99.90;;;;;;5072842;28;20277;-80
2023/02/16 08:43:48;;;;;;;70.18;23.83;;;9.50;99.90;;;;;;5055154;28;20190;-80
2023/02/16 08:46:14;;;;;;;48.00;21.77;;;9.40;99.90;;;;;;5073043;28;20166;-81
2023/02/16 08:48:40;;;;;;;39.38;23.02;;;9.30;99.90;;;;;;5072833;28;20643;-80
2023/02/16 08:51:06;;;;;;;42.30;22.88;;;9.40;99.90;;;;;;5072797;28;20169;-81
2023/02/16 08:53:33;;;;;;;35.90;23.00;;;9.40;99.90;;;;;;5072920;28;20207;-80
2023/02/16 08:56:03;;;;;;;34.53;22.10;;;9.50;99.90;;;;;;5055423;28;20523;-80
2023/02/16 08:58:30;;;;;;;33.05;21.45;;;9.50;99.90;;;;;;5073089;28;20166;-80
2023/02/16 09:00:56;;;;;;;53.20;23.85;;;9.60;99.90;;;;;;5055143;28;20170;-80
2023/02/16 09:03:22;;;;;;;36.78;23.58;;;9.50;99.90;;;;;;5055098;28;20195;-81
2023/02/16 09:05:50;;;;;;;38.80;23.08;;;9.70;99.90;;;;;;5072897;28;20762;-79
2023/02/16 09:08:16;;;;;;;45.75;23.67;;;9.80;99.90;;;;;;5072426;28;20220;-81
2023/02/16 09:10:42;;;;;;;36.13;22.58;;;9.90;99.90;;;;;;5072079;28;20167;-80
2023/02/16 09:13:12;;;;;;;43.50;23.30;;;9.80;99.90;;;;;;5072760;28;20198;-83
2023/02/16 09:15:38;;;;;;;41.97;22.63;;;9.90;99.90;;;;;;5072984;28;20163;-83
2023/02/16 09:18:04;;;;;;;36.03;23.02;;;9.90;99.90;;;;;;5052317;28;20241;-79
2023/02/16 09:20:30;;;;;;;43.03;23.67;;;10.00;99.90;;;;;;5032947;28;20198;-80
2023/02/16 09:22:56;;;;;;;39.53;23.02;;;10.00;99.90;;;;;;5031654;28;20214;-80
2023/02/16 09:25:23;;;;;;;41.85;22.85;;;10.10;99.90;;;;;;5032330;28;20172;-79
2023/02/16 09:27:49;;;;;;;41.25;25.52;;;10.30;99.90;;;;;;5034947;28;20203;-80
2023/02/16 09:30:14;;;;;;;50.67;25.00;;;10.10;99.90;;;;;;5030267;28;20753;-77
2023/02/16 09:32:41;;;;;;;46.67;24.77;;;10.00;99.90;;;;;;5047265;28;20202;-79
2023/02/16 09:35:07;;;;;;;42.13;23.02;;;10.00;99.90;;;;;;5040324;28;20740;-80
2023/02/16 09:37:32;;;;;;;43.40;25.27;;;10.00;99.90;;;;;;5041544;28;20180;-79
2023/02/16 09:39:58;;;;;;;41.97;21.92;;;10.00;99.90;;;;;;5045852;28;20164;-80
2023/02/16 09:43:00;;;;;;;47.25;25.95;;;10.10;99.90;;;;;;5045014;28;20207;-78
2023/02/16 09:45:27;;;;;;;59.95;23.48;;;10.20;99.90;;;;;;5051525;28;20554;-79
2023/02/16 09:47:57;;;;;;;40.53;23.77;;;10.20;99.90;;;;;;5034081;28;20175;-78
2023/02/16 09:50:26;;;;;;;36.72;23.63;;;10.00;99.90;;;;;;5054724;28;20209;-79
2023/02/16 09:53:08;;;;;;;36.88;23.50;;;10.00;99.90;;;;;;5067948;28;20191;-79
2023/02/16 09:55:46;;;;;;;37.28;23.55;;;10.10;99.90;;;;;;5047049;28;20675;-81
2023/02/16 09:58:26;;;;;;;41.20;23.30;;;10.10;99.90;;;;;;5057015;28;20171;-79
2023/02/16 10:01:06;;;;;;;38.95;22.80;;;9.90;99.90;;;;;;5044313;28;20177;-80
2023/02/16 10:03:48;;;;;;;45.85;22.98;;;10.10;99.90;;;;;;5043047;28;20226;-80
2023/02/16 10:06:30;;;;;;;37.60;22.90;;;10.20;99.90;;;;;;5029895;28;20222;-79
2023/02/16 10:09:05;;;;;;;47.28;22.55;;;10.10;99.90;;;;;;5032108;28;20202;-81
2023/02/16 10:11:37;;;;;;;40.10;22.52;;;10.30;99.90;;;;;;5060552;28;20178;-81
2023/02/16 10:14:40;;;;;;;40.63;24.02;;;10.30;99.90;;;;;;5051597;28;20198;-79
2023/02/16 10:17:32;;;;;;;49.03;22.42;;;10.50;99.90;;;;;;5050257;28;20187;-81
2023/02/16 10:20:16;;;;;;;50.53;24.13;;;10.50;99.90;;;;;;5033773;28;20167;-79
2023/02/16 10:22:52;;;;;;;40.55;23.55;;;10.70;99.90;;;;;;5033508;28;20242;-80
2023/02/16 10:25:23;;;;;;;40.65;21.70;;;11.00;99.90;;;;;;5051557;28;20174;-83
2023/02/16 10:28:23;;;;;;;53.35;22.58;;;11.20;99.90;;;;;;5051687;28;20167;-80
2023/02/16 10:31:09;;;;;;;41.67;22.73;;;11.30;99.90;;;;;;5002029;28;20190;-81
2023/02/16 10:33:52;;;;;;;43.22;22.42;;;11.10;99.90;;;;;;5051706;28;20663;-81
2023/02/16 10:36:37;;;;;;;43.83;23.48;;;11.20;99.90;;;;;;5053439;28;20186;-90
2023/02/16 10:39:14;;;;;;;39.65;21.90;;;11.30;99.90;;;;;;5058268;28;20628;-80
2023/02/16 10:41:45;;;;;;;44.10;23.83;;;11.50;99.90;;;;;;5040183;28;20635;-80
2023/02/16 10:44:35;;;;;;;45.38;22.88;;;11.50;99.90;;;;;;5064705;28;20167;-88
2023/02/16 10:47:04;;;;;;;43.40;22.92;;;11.10;99.90;;;;;;5048577;28;20171;-84
2023/02/16 10:49:31;;;;;;;38.90;21.75;;;11.40;99.90;;;;;;5068347;28;20194;-82
2023/02/16 10:52:00;;;;;;;37.10;22.08;;;11.70;99.90;;;;;;5053374;28;20167;-87
2023/02/16 10:54:29;;;;;;;31.75;21.27;;;11.40;99.90;;;;;;5059560;28;20194;-81
2023/02/16 10:57:05;;;;;;;36.22;22.70;;;11.50;99.90;;;;;;5067326;28;20179;-84
2023/02/16 10:59:37;;;;;;;38.30;21.85;;;11.70;99.90;;;;;;5064892;28;20171;-88
2023/02/16 11:02:31;;;;;;;37.03;22.10;;;11.90;99.90;;;;;;5063296;28;20226;-87
2023/02/16 11:04:58;;;;;;;36.30;21.98;;;12.00;99.90;;;;;;5048852;28;20180;-84
2023/02/16 11:07:26;;;;;;;37.10;22.73;;;12.30;99.90;;;;;;5062272;28;20215;-87
2023/02/16 11:09:54;;;;;;;34.20;21.40;;;12.10;99.90;;;;;;5064344;28;20640;-86
2023/02/16 11:12:29;;;;;;;42.55;21.58;;;12.20;99.90;;;;;;5041950;28;20241;-94
2023/02/16 11:15:15;;;;;;;38.70;22.27;;;12.20;99.90;;;;;;5067493;28;20230;-84
2023/02/16 11:18:21;;;;;;;34.63;20.35;;;12.40;99.90;;;;;;5058595;28;20670;-87
2023/02/16 11:20:47;;;;;;;38.35;22.83;;;12.50;99.90;;;;;;5038018;28;20167;-83
2023/02/16 11:23:25;;;;;;;40.92;22.35;;;12.60;99.90;;;;;;5055515;28;20332;-86
2023/02/16 11:25:55;;;;;;;41.58;22.85;;;12.90;99.90;;;;;;5055512;28;20160;-82
2023/02/16 11:28:42;;;;;;;37.25;22.13;;;13.00;99.90;;;;;;5055065;28;20173;-84
2023/02/16 11:31:29;;;;;;;40.45;22.33;;;12.90;99.90;;;;;;5055067;28;20523;-86
2023/02/16 11:34:05;;;;;;;35.25;21.05;;;12.80;99.90;;;;;;5055426;28;20217;-85
2023/02/16 11:36:38;;;;;;;35.85;21.35;;;12.80;99.90;;;;;;5055809;28;20206;-84
2023/02/16 11:39:15;;;;;;;47.90;20.88;;;13.00;99.90;;;;;;5037504;28;20221;-83
2023/02/16 11:41:55;;;;;;;31.60;19.70;;;13.10;99.90;;;;;;5054879;28;20639;-81
2023/02/16 11:44:43;;;;;;;29.08;19.55;;;12.80;99.90;;;;;;5055398;28;20155;-83
2023/02/16 11:47:31;;;;;;;32.15;20.27;;;12.80;99.90;;;;;;5054912;28;20171;-82
2023/02/16 11:50:27;;;;;;;36.78;19.33;;;12.80;99.90;;;;;;5037015;28;20179;-85
2023/02/16 11:52:56;;;;;;;36.40;18.48;;;12.50;99.90;;;;;;5036389;28;20299;-81
2023/02/16 11:55:31;;;;;;;29.85;19.02;;;12.50;99.90;;;;;;5054399;28;20163;-79
2023/02/16 11:58:12;;;;;;;38.08;18.80;;;12.70;99.90;;;;;;5054209;28;20162;-80
2023/02/16 12:00:40;;;;;;;32.13;18.25;;;12.80;99.90;;;;;;5053301;28;20171;-79
2023/02/16 12:03:33;;;;;;;28.25;17.08;;;12.80;99.90;;;;;;5053601;28;20289;-82
2023/02/16 12:06:14;;;;;;;27.73;18.70;;;12.60;99.90;;;;;;5015762;28;20184;-80
2023/02/16 12:08:50;;;;;;;24.60;16.75;;;12.50;99.90;;;;;;5053956;28;20163;-80
2023/02/16 12:11:28;;;;;;;26.85;17.20;;;12.60;99.90;;;;;;5054331;28;20205;-80
2023/02/16 12:14:12;;;;;;;29.40;16.92;;;12.70;99.90;;;;;;5053916;28;20175;-82
2023/02/16 12:17:00;;;;;;;27.92;16.60;;;12.70;99.90;;;;;;5054102;28;20171;-80
2023/02/16 12:19:47;;;;;;;33.58;17.73;;;12.50;99.90;;;;;;5053751;28;20180;-88
2023/02/16 12:22:28;;;;;;;32.38;17.83;;;12.60;99.90;;;;;;5054353;28;20227;-92
2023/02/16 12:25:18;;;;;;;34.90;18.67;;;12.70;99.90;;;;;;5036880;28;20163;-82
2023/02/16 12:27:53;;;;;;;25.25;18.42;;;12.60;99.90;;;;;;5055211;28;20163;-86
2023/02/16 12:30:51;;;;;;;30.90;17.42;;;12.80;99.90;;;;;;5055862;28;20241;-87
2023/02/16 12:33:48;;;;;;;37.10;17.70;;;12.90;99.90;;;;;;5014100;28;20199;-92
2023/02/16 12:36:35;;;;;;;22.73;15.05;;;13.00;99.90;;;;;;5035516;28;20175;-82
2023/02/16 12:39:28;;;;;;;32.28;17.00;;;13.10;99.90;;;;;;5054462;28;20179;-90
2023/02/16 12:42:13;;;;;;;25.52;17.40;;;13.10;99.90;;;;;;5054215;28;20245;-88
2023/02/16 12:45:02;;;;;;;28.00;16.15;;;13.10;99.90;;;;;;5036787;28;20674;-86
2023/02/16 12:47:32;;;;;;;31.65;16.20;;;13.30;99.90;;;;;;5054453;28;20589;-81
2023/02/16 12:50:23;;;;;;;23.17;14.50;;;13.30;99.90;;;;;;5054429;28;20636;-94
2023/02/16 12:52:54;;;;;;;23.45;14.15;;;13.30;99.90;;;;;;5035458;28;20207;-83
2023/02/16 12:55:38;;;;;;;22.10;15.32;;;13.20;99.90;;;;;;5053849;28;20183;-81
2023/02/16 12:58:13;;;;;;;22.40;15.40;;;13.20;99.90;;;;;;5054212;28;20250;-87
2023/02/16 13:00:51;;;;;;;22.25;15.35;;;13.10;99.90;;;;;;5054172;28;20209;-89
2023/02/16 13:03:34;;;;;;;23.20;16.52;;;13.00;99.90;;;;;;5036119;28;20206;-91
2023/02/16 13:06:16;;;;;;;30.83;16.83;;;12.90;99.90;;;;;;5053824;28;20170;-87
2023/02/16 13:08:49;;;;;;;24.38;16.23;;;12.90;99.90;;;;;;5036171;28;20166;-89
2023/02/16 13:11:29;;;;;;;27.20;16.15;;;12.90;99.90;;;;;;5054424;28;20504;-82
2023/02/16 13:13:59;;;;;;;32.70;16.45;;;13.10;99.90;;;;;;5053908;28;20186;-85
2023/02/16 13:16:30;;;;;;;27.42;15.90;;;13.30;99.90;;;;;;5035929;28;20542;-93
2023/02/16 13:18:56;;;;;;;30.63;16.35;;;13.20;99.90;;;;;;5054449;28;20214;-81
2023/02/16 13:21:48;;;;;;;27.02;15.85;;;13.40;99.90;;;;;;5053919;28;20296;-84
2023/02/16 13:24:36;;;;;;;30.98;17.00;;;13.40;99.90;;;;;;5039300;28;20216;-93
2023/02/16 13:27:28;;;;;;;33.17;18.42;;;13.40;99.90;;;;;;5054208;28;20178;-93
2023/02/16 13:30:13;;;;;;;33.00;18.25;;;13.40;99.90;;;;;;5016438;28;20635;-94
2023/02/16 13:32:48;;;;;;;38.97;19.33;;;13.20;99.90;;;;;;5053335;28;20232;-84
2023/02/16 13:35:47;;;;;;;31.05;18.05;;;12.90;99.90;;;;;;5053548;28;20461;-88
2023/02/16 13:38:24;;;;;;;39.55;20.00;;;13.10;99.90;;;;;;5035447;28;20750;-84
2023/02/16 13:41:20;;;;;;;34.95;19.15;;;12.90;99.90;;;;;;5052732;28;20171;-82